D/T METAR WX W/DIR W/SPE G/SPE TEMP DEWP
19/03/19 03:20 EGSS 190320Z AUTO 22004KT 9999 FEW026 BKN031 OVC041 05/05 Q1025 SW (220°) 4.6mph 5°C 5°C
19/03/19 02:50 EGSS 190250Z AUTO 22004KT 9999 BKN034 OVC045 05/04 Q1024 SW (220°) 4.6mph 5°C 4°C
19/03/19 02:20 EGSS 190220Z AUTO 21004KT 9999 OVC044 05/04 Q1024 SSW (210°) 4.6mph 5°C 4°C
19/03/19 01:50 EGSS 190150Z AUTO 22004KT 9999 BKN029 OVC047 05/04 Q1024 SW (220°) 4.6mph 5°C 4°C
19/03/19 01:20 EGSS 190120Z AUTO 21002KT 9999 BKN028 04/03 Q1024 SSW (210°) 2.3mph 4°C 3°C
19/03/19 00:50 EGSS 190050Z AUTO 22005KT 9999 NCD 03/02 Q1024 SW (220°) 5.8mph 3°C 2°C
19/03/19 00:20 EGSS 190020Z AUTO 23004KT 9999 NCD 03/02 Q1024 SW (230°) 4.6mph 3°C 2°C
18/03/19 23:50 EGSS 182350Z AUTO 22005KT 9999 NCD 04/03 Q1024 SW (220°) 5.8mph 4°C 3°C
18/03/19 23:20 EGSS 182320Z AUTO 22005KT 9999 FEW046 04/03 Q1024 SW (220°) 5.8mph 4°C 3°C
18/03/19 22:50 EGSS 182250Z AUTO 23004KT 9999 BKN049 04/03 Q1024 SW (230°) 4.6mph 4°C 3°C
18/03/19 22:20 EGSS 182220Z AUTO 23005KT 9999 BKN046 04/02 Q1024 SW (230°) 5.8mph 4°C 2°C
18/03/19 21:50 EGSS 182150Z AUTO 21003KT 9999 NCD 05/03 Q1024 SSW (210°) 3.5mph 5°C 3°C
18/03/19 21:20 EGSS 182120Z AUTO 24003KT 9999 NCD 05/03 Q1023 WSW (240°) 3.5mph 5°C 3°C
18/03/19 20:50 EGSS 182050Z AUTO 25002KT 9999 NCD 05/03 Q1023 WSW (250°) 2.3mph 5°C 3°C
18/03/19 20:20 EGSS 182020Z AUTO 25003KT 9999 NCD 05/03 Q1023 WSW (250°) 3.5mph 5°C 3°C
18/03/19 19:50 EGSS 181950Z AUTO 25003KT 9999 NCD 06/03 Q1023 WSW (250°) 3.5mph 6°C 3°C
18/03/19 19:20 EGSS 181920Z AUTO 25003KT 9999 NCD 06/03 Q1023 WSW (250°) 3.5mph 6°C 3°C
18/03/19 18:50 EGSS 181850Z AUTO 26004KT 9999 NCD 06/03 Q1022 W (260°) 4.6mph 6°C 3°C
18/03/19 18:20 EGSS 181820Z AUTO 26005KT 9999 NCD 07/03 Q1022 W (260°) 5.8mph 7°C 3°C
18/03/19 17:50 EGSS 181750Z AUTO 27004KT 9999 NCD 08/02 Q1022 W (270°) 4.6mph 8°C 2°C
18/03/19 17:20 EGSS 181720Z AUTO 30003KT 9999 //////CB 08/02 Q1021 WNW (300°) 3.5mph 8°C 2°C
18/03/19 16:50 EGSS 181650Z AUTO 29007KT 250V320 9999 FEW041 10/01 Q1021 WNW (290°) 8.1mph 10°C 1°C
18/03/19 16:20 EGSS 181620Z AUTO 31004KT 9999 FEW040 10/01 Q1021 NW (310°) 4.6mph 10°C 1°C
18/03/19 15:50 EGSS 181550Z AUTO 29007KT 250V330 9999 SCT042/// //////CB 10/01 Q1021 WNW (290°) 8.1mph 10°C 1°C
18/03/19 15:20 EGSS 181520Z AUTO 29008KT 250V310 9999 BKN042/// //////TCU 11/01 Q1020 WNW (290°) 9.2mph 11°C 1°C
18/03/19 14:50 EGSS 181450Z AUTO VRB05KT 9999 BKN039/// //////TCU 11/03 Q1020 N (0°) 5.8mph 11°C 3°C
18/03/19 14:20 EGSS 181420Z AUTO 29008KT 250V350 9999 FEW039/// //////CB 11/02 Q1020 WNW (290°) 9.2mph 11°C 2°C
18/03/19 13:50 EGSS 181350Z AUTO 30007KT 9999 FEW033/// //////CB 10/02 Q1020 WNW (300°) 8.1mph 10°C 2°C
18/03/19 13:20 EGSS 181320Z AUTO 31005KT 280V350 9999 -RA FEW030/// SCT046/// //////CB 10/03 Q1020 -RA NW (310°) 5.8mph 10°C 3°C
18/03/19 12:50 EGSS 181250Z AUTO 28008KT 250V330 9999 BKN028/// BKN034/// BKN048/// //////TCU 10/04 Q1020 W (280°) 9.2mph 10°C 4°C
18/03/19 12:20 EGSS 181220Z AUTO 28009KT 9999 SCT029 BKN033 BKN048 09/03 Q1020 W (280°) 10.4mph 9°C 3°C
18/03/19 11:50 EGSS 181150Z AUTO 29008KT 260V330 9999 BKN024 BKN036 09/03 Q1020 WNW (290°) 9.2mph 9°C 3°C
18/03/19 11:20 EGSS 181120Z AUTO 28010KT 240V310 9999 SCT023 BKN032 BKN048 09/04 Q1020 W (280°) 11.5mph 9°C 4°C
18/03/19 10:20 EGSS 181020Z AUTO 31010KT 9999 FEW019 08/04 Q1020 NW (310°) 11.5mph 8°C 4°C
18/03/19 09:50 EGSS 180950Z AUTO 30009KT 270V330 9999 NCD 08/04 Q1020 WNW (300°) 10.4mph 8°C 4°C
18/03/19 09:20 EGSS 180920Z AUTO 30008KT 9999 NCD 07/03 Q1019 WNW (300°) 9.2mph 7°C 3°C
18/03/19 08:50 EGSS 180850Z AUTO 29008KT 9999 NCD 06/03 Q1019 WNW (290°) 9.2mph 6°C 3°C
18/03/19 08:20 EGSS 180820Z AUTO 28008KT 240V310 9999 NCD 05/03 Q1019 W (280°) 9.2mph 5°C 3°C
18/03/19 07:50 EGSS 180750Z AUTO 28006KT 9999 NCD 05/03 Q1019 W (280°) 6.9mph 5°C 3°C
18/03/19 07:20 EGSS 180720Z AUTO 27006KT 9999 NCD 04/02 Q1018 W (270°) 6.9mph 4°C 2°C
18/03/19 06:50 EGSS 180650Z AUTO 29006KT 9999 NCD 04/02 Q1018 WNW (290°) 6.9mph 4°C 2°C
18/03/19 06:20 EGSS 180620Z AUTO 29006KT 9999 NCD 04/02 Q1018 WNW (290°) 6.9mph 4°C 2°C
18/03/19 05:50 EGSS 180550Z AUTO 29006KT 9999 NCD 04/02 Q1017 WNW (290°) 6.9mph 4°C 2°C
18/03/19 05:20 EGSS 180520Z AUTO 29006KT 260V320 9999 NCD 04/02 Q1017 WNW (290°) 6.9mph 4°C 2°C
18/03/19 04:50 EGSS 180450Z AUTO 29006KT 260V330 9999 BKN032 BKN040 05/03 Q1017 WNW (290°) 6.9mph 5°C 3°C
18/03/19 04:20 EGSS 180420Z AUTO 30008KT 9999 NCD 04/03 Q1016 WNW (300°) 9.2mph 4°C 3°C
18/03/19 03:50 EGSS 180350Z AUTO 29006KT 9999 NCD 04/02 Q1016 WNW (290°) 6.9mph 4°C 2°C
18/03/19 03:20 EGSS 180320Z AUTO 29007KT 9999 FEW032 04/02 Q1016 WNW (290°) 8.1mph 4°C 2°C
18/03/19 02:50 EGSS 180250Z AUTO 28006KT 250V310 9999 BKN029 05/03 Q1016 W (280°) 6.9mph 5°C 3°C
18/03/19 02:20 EGSS 180220Z AUTO 28006KT 240V310 9999 SCT027 OVC043 05/03 Q1015 W (280°) 6.9mph 5°C 3°C
18/03/19 01:50 EGSS 180150Z AUTO 29005KT 9999 SCT040 04/03 Q1015 WNW (290°) 5.8mph 4°C 3°C
18/03/19 01:20 EGSS 180120Z AUTO 29007KT 9999 NCD 04/03 Q1014 WNW (290°) 8.1mph 4°C 3°C
18/03/19 00:50 EGSS 180050Z AUTO 29008KT 9999 NCD 05/03 Q1014 WNW (290°) 9.2mph 5°C 3°C
18/03/19 00:20 EGSS 180020Z AUTO 30008KT 9999 NCD 05/03 Q1013 WNW (300°) 9.2mph 5°C 3°C
17/03/19 23:50 EGSS 172350Z AUTO 30007KT 9999 NCD 05/03 Q1013 WNW (300°) 8.1mph 5°C 3°C
17/03/19 23:20 EGSS 172320Z AUTO 30008KT 9999 NCD 05/02 Q1013 WNW (300°) 9.2mph 5°C 2°C
17/03/19 22:50 EGSS 172250Z AUTO 29007KT 9999 NCD 04/02 Q1012 WNW (290°) 8.1mph 4°C 2°C
17/03/19 22:20 EGSS 172220Z AUTO 28006KT 9999 NCD 04/02 Q1012 W (280°) 6.9mph 4°C 2°C
17/03/19 21:50 EGSS 172150Z AUTO 27006KT 9999 FEW024 BKN028 04/02 Q1012 W (270°) 6.9mph 4°C 2°C
17/03/19 21:20 EGSS 172120Z AUTO 28007KT 9999 SCT034 04/02 Q1011 W (280°) 8.1mph 4°C 2°C
17/03/19 20:50 EGSS 172050Z AUTO 28007KT 9999 FEW037 05/02 Q1011 W (280°) 8.1mph 5°C 2°C
17/03/19 20:20 EGSS 172020Z AUTO 27007KT 240V300 9999 SCT045 05/02 Q1010 W (270°) 8.1mph 5°C 2°C
17/03/19 19:50 EGSS 171950Z AUTO 27008KT 9999 SCT045 05/01 Q1010 W (270°) 9.2mph 5°C 1°C
17/03/19 19:20 EGSS 171920Z AUTO 24006KT 9999 FEW041 SCT048 04/01 Q1009 WSW (240°) 6.9mph 4°C 1°C
17/03/19 18:50 EGSS 171850Z 24007KT 9999 SCT045 04/01 Q1009 WSW (240°) 8.1mph 4°C 1°C
17/03/19 18:20 EGSS 171820Z AUTO 25006KT 9999 NCD 04/01 Q1008 WSW (250°) 6.9mph 4°C 1°C
17/03/19 17:50 EGSS 171750Z 24006KT 9999 VCSH FEW046 04/02 Q1008 VCSH WSW (240°) 6.9mph 4°C 2°C
17/03/19 17:20 EGSS 171720Z 25007KT 9999 VCSH FEW034CB 05/01 Q1008 VCSH WSW (250°) 8.1mph 5°C 1°C
17/03/19 16:50 EGSS 171650Z AUTO 25008KT 9999 //////TCU 05/02 Q1007 WSW (250°) 9.2mph 5°C 2°C
17/03/19 16:20 EGSS 171620Z 26013KT 9999 VCSH SCT040CB 05/01 Q1007 VCSH W (260°) 15.0mph 5°C 1°C
17/03/19 15:50 EGSS 171550Z AUTO 27009KT 9999 FEW045 07/01 Q1006 W (270°) 10.4mph 7°C 1°C
17/03/19 14:50 EGSS 171450Z 30009KT 9999 VCSH FEW016 SCT028CB BKN041 04/01 Q1006 RESHRA VCSH WNW (300°) 10.4mph 4°C 1°C
17/03/19 14:20 EGSS 171420Z AUTO 32020KT 9999 FEW027/// BKN043/// //////CB 07/M01 Q1005 NW (320°) 23.0mph 7°C -1°C
17/03/19 13:50 EGSS 171350Z 27013KT 9999 VCSH SCT045TCU 08/M01 Q1005 VCSH W (270°) 15.0mph 8°C -1°C
17/03/19 13:20 EGSS 171320Z 27013KT 9999 VCSH SCT042CB 08/M01 Q1005 VCSH W (270°) 15.0mph 8°C -1°C
17/03/19 12:50 EGSS 171250Z AUTO 27013KT 240V300 9999 SCT042 08/M01 Q1005 W (270°) 15.0mph 8°C -1°C
17/03/19 12:20 EGSS 171220Z AUTO 28014KT 9999 SCT040 08/M01 Q1005 W (280°) 16.1mph 8°C -1°C
17/03/19 11:50 EGSS 171150Z AUTO 25015G26KT 9999 SCT037/// //////TCU 08/M00 Q1004 WSW (250°) 17.3mph 29.9mph 8°C 0°C
17/03/19 11:20 EGSS 171120Z AUTO 27013KT 9999 SCT034 BKN045 08/00 Q1004 W (270°) 15.0mph 8°C 0°C
17/03/19 10:50 EGSS 171050Z AUTO 27012KT 230V300 9999 BKN031 BKN038 07/00 Q1004 W (270°) 13.8mph 7°C 0°C
17/03/19 10:20 EGSS 171020Z AUTO 27013G24KT 9999 SCT027 BKN033 07/01 Q1004 W (270°) 15.0mph 27.6mph 7°C 1°C
17/03/19 09:50 EGSS 170950Z AUTO 27013KT 9999 BKN024 BKN031 06/01 Q1003 W (270°) 15.0mph 6°C 1°C
17/03/19 09:20 EGSS 170920Z AUTO 27011KT 240V300 9999 BKN022 06/01 Q1003 W (270°) 12.7mph 6°C 1°C
17/03/19 08:50 EGSS 170850Z AUTO 26012KT 9999 BKN020 06/02 Q1002 W (260°) 13.8mph 6°C 2°C
17/03/19 08:20 EGSS 170820Z AUTO 27009KT 9999 FEW019 05/02 Q1002 W (270°) 10.4mph 5°C 2°C
17/03/19 07:50 EGSS 170750Z AUTO 26010KT 9999 NCD 04/02 Q1001 W (260°) 11.5mph 4°C 2°C
17/03/19 07:20 EGSS 170720Z AUTO 26008KT 9999 SCT027 04/02 Q1001 W (260°) 9.2mph 4°C 2°C
17/03/19 06:50 EGSS 170650Z AUTO 26006KT 9999 BKN025 03/02 Q1000 W (260°) 6.9mph 3°C 2°C
17/03/19 06:20 EGSS 170620Z AUTO 26008KT 9999 NCD 03/01 Q1000 W (260°) 9.2mph 3°C 1°C
17/03/19 05:50 EGSS 170550Z AUTO 26007KT 9999 SCT026 03/01 Q1000 W (260°) 8.1mph 3°C 1°C
17/03/19 05:20 EGSS 170520Z AUTO 26009KT 9999 FEW019 04/02 Q0999 W (260°) 10.4mph 4°C 2°C
17/03/19 04:50 EGSS 170450Z AUTO 27008KT 9999 SCT018 BKN048 04/02 Q0998 W (270°) 9.2mph 4°C 2°C
17/03/19 04:20 EGSS 170420Z AUTO 26009KT 9999 BKN018 BKN026 04/02 Q0998 W (260°) 10.4mph 4°C 2°C
17/03/19 03:50 EGSS 170350Z AUTO 26009KT 9999 SCT024 05/02 Q0997 W (260°) 10.4mph 5°C 2°C
17/03/19 03:20 EGSS 170320Z AUTO 26010KT 9999 NCD 05/02 Q0997 W (260°) 11.5mph 5°C 2°C
17/03/19 02:50 EGSS 170250Z AUTO 26011KT 9999 SCT016 BKN021 05/03 Q0997 W (260°) 12.7mph 5°C 3°C
17/03/19 02:20 EGSS 170220Z AUTO 26009KT 9999 BKN018 BKN023 06/04 Q0996 W (260°) 10.4mph 6°C 4°C
17/03/19 01:50 EGSS 170150Z AUTO 26008KT 9999 BKN019/// BKN027/// //////TCU 06/04 Q0996 W (260°) 9.2mph 6°C 4°C
17/03/19 01:20 EGSS 170120Z AUTO 26009KT 9999 //////TCU 05/04 Q0996 W (260°) 10.4mph 5°C 4°C
17/03/19 00:50 EGSS 170050Z AUTO 26008KT 9999 NCD 06/04 Q0996 W (260°) 9.2mph 6°C 4°C
17/03/19 00:20 EGSS 170020Z AUTO 26008KT 9999 NCD 06/05 Q0995 W (260°) 9.2mph 6°C 5°C
16/03/19 23:50 EGSS 162350Z AUTO 27007KT 9999 -RA SCT018 BKN042 06/05 Q0995 -RA W (270°) 8.1mph 6°C 5°C
16/03/19 23:20 EGSS 162320Z AUTO 27013G24KT 7000 -RA BKN011 BKN017 BKN027 07/06 Q0995 -RA W (270°) 15.0mph 27.6mph 7°C 6°C
16/03/19 22:50 EGSS 162250Z AUTO 25013KT 9999 -RA SCT013/// BKN019/// BKN043/// //////TCU 07/06 Q0994 -RA WSW (250°) 15.0mph 7°C 6°C
16/03/19 21:50 EGSS 162150Z AUTO 24015KT 9999 -RA BKN016/// BKN022/// //////TCU 08/07 Q0994 RERA -RA WSW (240°) 17.3mph 8°C 7°C
16/03/19 21:20 EGSS 162120Z AUTO 22021KT 4000 RA BKN008/// BKN013/// OVC044/// //////CB 09/08 Q0994 RA SW (220°) 24.2mph 9°C 8°C
16/03/19 20:50 EGSS 162050Z AUTO 22023KT 6000 -RA BKN008 OVC023 09/08 Q0994 -RA SW (220°) 26.5mph 9°C 8°C
16/03/19 20:20 EGSS 162020Z AUTO 22024G34KT 6000 -RA OVC007 09/08 Q0994 -RA SW (220°) 27.6mph 39.1mph 9°C 8°C
16/03/19 19:50 EGSS 161950Z AUTO 22024KT 5000 -RADZ OVC009 09/08 Q0994 -RA -DZ SW (220°) 27.6mph 9°C 8°C
16/03/19 19:20 EGSS 161920Z AUTO 22022KT 6000 -RA OVC012 09/08 Q0995 -RA SW (220°) 25.3mph 9°C 8°C
16/03/19 18:50 EGSS 161850Z 22022G32KT 9999 BKN012 OVC018 09/07 Q0995 SW (220°) 25.3mph 36.8mph 9°C 7°C
16/03/19 18:20 EGSS 161820Z AUTO 22023KT 5000 HZ BKN013 OVC024 09/07 Q0996 HZ SW (220°) 26.5mph 9°C 7°C
16/03/19 17:50 EGSS 161750Z AUTO 22024G34KT 8000 OVC015 10/07 Q0996 SW (220°) 27.6mph 39.1mph 10°C 7°C
16/03/19 17:20 EGSS 161720Z AUTO 22025G35KT 9999 OVC022 10/06 Q0996 SW (220°) 28.8mph 40.3mph 10°C 6°C
16/03/19 16:50 EGSS 161650Z AUTO 22029G39KT 9999 OVC023 10/06 Q0996 SW (220°) 33.4mph 44.9mph 10°C 6°C
16/03/19 16:20 EGSS 161620Z AUTO 22027G38KT 9999 OVC023 11/06 Q0997 SW (220°) 31.1mph 43.7mph 11°C 6°C
16/03/19 15:50 EGSS 161550Z AUTO 22028G40KT 9999 BKN025 OVC033 11/06 Q0997 SW (220°) 32.2mph 46.0mph 11°C 6°C
16/03/19 15:20 EGSS 161520Z AUTO 23030G48KT 9999 BKN028 OVC036 11/06 Q0997 SW (230°) 34.5mph 55.2mph 11°C 6°C
16/03/19 14:50 EGSS 161450Z AUTO 22024KT 9999 OVC026 12/07 Q0998 SW (220°) 27.6mph 12°C 7°C
16/03/19 14:20 EGSS 161420Z AUTO 22028G41KT 9999 BKN025 OVC031 11/06 Q0999 SW (220°) 32.2mph 47.2mph 11°C 6°C
16/03/19 13:50 EGSS 161350Z AUTO 23026G37KT 9999 OVC023 12/07 Q0999 SW (230°) 29.9mph 42.6mph 12°C 7°C
16/03/19 13:20 EGSS 161320Z AUTO 23024G41KT 9999 BKN028 OVC035 12/06 Q0999 SW (230°) 27.6mph 47.2mph 12°C 6°C
16/03/19 12:50 EGSS 161250Z AUTO 23025KT 9999 BKN024 OVC030 11/07 Q1000 SW (230°) 28.8mph 11°C 7°C
16/03/19 12:20 EGSS 161220Z AUTO 23023KT 9999 BKN022 OVC027 11/07 Q1001 SW (230°) 26.5mph 11°C 7°C
16/03/19 11:50 EGSS 161150Z AUTO 23023G34KT 9999 BKN024 OVC031 11/07 Q1001 SW (230°) 26.5mph 39.1mph 11°C 7°C
16/03/19 11:20 EGSS 161120Z 23027G40KT 9999 BKN025 OVC031 11/06 Q1001 SW (230°) 31.1mph 46.0mph 11°C 6°C
16/03/19 10:50 EGSS 161050Z AUTO 23022G32KT 9999 BKN024 OVC030 11/07 Q1002 SW (230°) 25.3mph 36.8mph 11°C 7°C
16/03/19 10:20 EGSS 161020Z AUTO 23023G34KT 9999 BKN020 OVC030 10/07 Q1002 SW (230°) 26.5mph 39.1mph 10°C 7°C
16/03/19 09:20 EGSS 160920Z AUTO 23020KT 9999 BKN013 OVC025 10/08 Q1003 SW (230°) 23.0mph 10°C 8°C
16/03/19 08:50 EGSS 160850Z AUTO 23020KT 9999 BKN017 OVC023 10/08 Q1003 SW (230°) 23.0mph 10°C 8°C
16/03/19 08:20 EGSS 160820Z AUTO 23021G35KT 9999 BKN020 OVC027 10/08 Q1003 SW (230°) 24.2mph 40.3mph 10°C 8°C
16/03/19 07:20 EGSS 160720Z AUTO 23017KT 9999 BKN015 OVC019 10/08 Q1004 SW (230°) 19.6mph 10°C 8°C
16/03/19 06:50 EGSS 160650Z AUTO 23019KT 9999 OVC014 10/08 Q1004 SW (230°) 21.9mph 10°C 8°C
16/03/19 05:50 EGSS 160550Z AUTO 23017KT 9999 OVC014 10/08 Q1005 SW (230°) 19.6mph 10°C 8°C
16/03/19 05:20 EGSS 160520Z AUTO 23018KT 9999 BKN014 OVC020 10/08 Q1005 SW (230°) 20.7mph 10°C 8°C
16/03/19 04:50 EGSS 160450Z AUTO 23018KT 9999 BKN014 OVC020 10/08 Q1005 SW (230°) 20.7mph 10°C 8°C
16/03/19 04:20 EGSS 160420Z AUTO 23018KT 9999 OVC013 10/09 Q1005 SW (230°) 20.7mph 10°C 9°C
16/03/19 03:50 EGSS 160350Z AUTO 23016KT 9999 -RA BKN012 OVC017 10/09 Q1006 -RA SW (230°) 18.4mph 10°C 9°C
16/03/19 03:20 EGSS 160320Z AUTO 23015KT 6000 -RA OVC012 10/09 Q1006 -RA SW (230°) 17.3mph 10°C 9°C
16/03/19 02:50 EGSS 160250Z AUTO 24016KT 9999 -RA BKN010 OVC015 10/09 Q1006 -RA WSW (240°) 18.4mph 10°C 9°C
16/03/19 02:20 EGSS 160220Z AUTO 23014KT 9999 -RA BKN005 OVC010 10/10 Q1006 RERA REDZ -RA SW (230°) 16.1mph 10°C 10°C
16/03/19 01:50 EGSS 160150Z AUTO 23013KT 3400 -RA OVC003 10/10 Q1007 RERA REDZ -RA SW (230°) 15.0mph 10°C 10°C
16/03/19 01:20 EGSS 160120Z AUTO 21010KT 3100 -RADZ OVC003 09/09 Q1008 REDZ -RA -DZ SSW (210°) 11.5mph 9°C 9°C
16/03/19 00:50 EGSS 160050Z AUTO 20007KT 3100 DZ OVC002 09/08 Q1008 DZ SSW (200°) 8.1mph 9°C 8°C